Date,TemperatureHighF,TemperatureAvgF,TemperatureLowF,DewpointHighF,DewpointAvgF,DewpointLowF,HumidityHigh,HumidityAvg,HumidityLow,PressureMaxIn,PressureMinIn,WindSpeedMaxMPH,WindSpeedAvgMPH,GustSpeedMaxMPH,PrecipitationSumIn
2014-1-5,-1.7,-8.8,-19.7,-12.5,-17.0,-26.7,73,66,58,29.28,29.24,9,4,0,0.00
2014-1-6,-10.9,-17.8,-23.0,-19.0,-24.3,-29.3,76,71,64,29.25,29.15,8,3,0,0.00
2014-1-7,5.0,-10.8,-21.6,-5.8,-15.8,-25.8,84,78,59,29.23,29.09,7,1,0,0.00
2014-1-8,5.4,-9.0,-19.1,-5.8,-14.2,-22.9,85,78,59,29.44,29.23,2,0,0,0.00
2014-1-9,18.5,5.7,-21.4,15.5,0.1,-25.6,91,78,61,29.41,28.92,8,3,0,0.00
2014-1-10,29.9,25.0,17.7,28.4,23.5,15.5,95,94,91,28.92,28.49,9,2,0,0.00
2014-1-11,30.9,28.4,24.3,28.8,26.2,22.7,96,91,83,28.68,28.46,6,2,0,0.00
2014-1-12,41.3,33.3,23.3,33.3,28.7,21.8,94,83,72,28.64,28.36,8,3,0,0.02
2014-1-13,34.5,29.6,21.1,31.0,24.9,17.6,92,83,65,28.65,28.49,7,2,0,0.00
2014-1-14,27.4,19.8,6.6,25.7,16.5,2.3,95,87,75,29.07,28.47,11,4,0,0.00
2014-1-15,24.0,6.3,-8.2,19.3,2.4,-11.0,90,84,73,29.10,28.41,14,3,0,0.00
2014-1-16,34.1,20.3,7.8,32.3,15.4,1.8,94,81,67,28.82,28.34,12,4,0,0.00
2014-1-17,14.9,8.1,-2.0,4.9,2.0,-5.1,89,76,62,29.00,28.80,6,2,0,0.00
2014-1-18,22.7,13.8,4.6,14.1,9.9,1.8,90,84,66,28.91,28.61,9,3,0,0.00
2014-1-19,16.2,16.2,16.1,13.0,12.9,12.9,87,87,87,28.71,28.70,4,4,0,0.00
2014-1-25,8.2,3.5,1.8,-1.0,-5.8,-6.9,78,65,54,28.87,28.62,6,3,8,0.00
2014-1-26,18.7,4.7,-4.4,11.5,0.6,-9.0,87,83,73,28.98,28.39,13,4,13,0.00
2014-1-27,-4.5,-9.8,-16.3,-11.9,-16.7,-21.8,78,71,62,29.36,29.03,12,4,12,0.00
2014-1-28,-1.8,-9.4,-17.2,-8.8,-14.8,-21.2,82,77,68,29.34,29.07,9,3,9,0.00
2014-1-29,30.9,12.7,-5.9,19.6,4.3,-10.7,80,69,57,29.04,28.58,8,4,8,0.00
2014-1-30,29.4,20.1,-0.1,23.5,14.9,-6.7,94,81,65,28.98,28.49,8,3,8,0.00
2014-1-31,7.3,-5.1,-21.1,-2.6,-11.3,-25.1,84,75,63,29.14,29.02,9,2,9,0.00